Huron Regional Airport Huron US
ICAO: KHON
IATA: HON
Category: Medium
Scheduled Services: Yes

Elevation: 1289 ft
TransAlt. 18000 ft.

Airport Communications:
ASOS:118.125
MINNEAPOLIS CNTR:126.25
CTAF:123.6
RDO:122.1
RDO:122.2
UNICOM:123

KHON Zoom In..

If you have problems with the map follow the link
https://www.worldairports.se/pages/airport.php?
ICAO=KHON

Runways:

(A) RW 12 length 7201 ft width 100 ft
ILS 110.30 / hdg 121

(B) RW 17 length 5000 ft width 75 ft
---- / hdg 173

(C) RW 30 length 7201 ft width 100 ft
---- / hdg 301

(D) RW 35 length 5000 ft width 75 ft
---- / hdg 353

Location; KHON
Day. 18 / Time. 01.55 Zulu
* Altimeter: 30.21
* Temperature: -12° c. -10.4°f.
* Wind from: 350° Speed 13 kn.
Dewpoint: -14° c.
Visibility: 10 Statute Miles.
Clouds: Overcast 4400 ft.

KHON 180155Z AUTO 35013KT 10SM OVC044 M12/M14 A3021 RMK AO2 UPB07E12SNE07 SLP259 P0000 T11171144


Wind From 350°
Speed 13 kn.

 
 
jpsmedia.com for Web Design worldairports.se 2019   terms of use